sensor_id;sensor_type;location;lat;lon;timestamp;temperature;humidity
67890;DHT22;54685;52.082;5.426;2023-09-18T00:00:09;16.70;99.90
67890;DHT22;54685;52.082;5.426;2023-09-18T00:02:39;16.60;99.90
67890;DHT22;54685;52.082;5.426;2023-09-18T00:05:06;16.60;99.90
67890;DHT22;54685;52.082;5.426;2023-09-18T00:07:33;16.70;99.90
67890;DHT22;54685;52.082;5.426;2023-09-18T00:10:00;16.60;99.90
67890;DHT22;54685;52.082;5.426;2023-09-18T00:12:27;16.70;99.90
67890;DHT22;54685;52.082;5.426;2023-09-18T00:14:54;16.70;99.90
67890;DHT22;54685;52.082;5.426;2023-09-18T00:17:21;16.70;99.90
67890;DHT22;54685;52.082;5.426;2023-09-18T00:19:50;16.70;99.90
67890;DHT22;54685;52.082;5.426;2023-09-18T00:22:18;16.70;99.90
67890;DHT22;54685;52.082;5.426;2023-09-18T00:24:45;16.80;99.90
67890;DHT22;54685;52.082;5.426;2023-09-18T00:27:13;16.80;99.90
67890;DHT22;54685;52.082;5.426;2023-09-18T00:29:40;16.80;99.90
67890;DHT22;54685;52.082;5.426;2023-09-18T00:32:07;16.80;99.90
67890;DHT22;54685;52.082;5.426;2023-09-18T00:34:34;16.80;99.90
67890;DHT22;54685;52.082;5.426;2023-09-18T00:37:01;16.80;99.90
67890;DHT22;54685;52.082;5.426;2023-09-18T00:39:29;16.80;99.90
67890;DHT22;54685;52.082;5.426;2023-09-18T00:41:55;16.80;99.90
67890;DHT22;54685;52.082;5.426;2023-09-18T00:44:24;16.80;99.90
67890;DHT22;54685;52.082;5.426;2023-09-18T00:46:53;16.80;99.90
67890;DHT22;54685;52.082;5.426;2023-09-18T00:49:22;16.80;99.90
67890;DHT22;54685;52.082;5.426;2023-09-18T00:51:51;16.80;99.90
67890;DHT22;54685;52.082;5.426;2023-09-18T00:54:19;16.80;99.90
67890;DHT22;54685;52.082;5.426;2023-09-18T00:56:47;16.80;99.90
67890;DHT22;54685;52.082;5.426;2023-09-18T00:59:15;16.80;99.90
67890;DHT22;54685;52.082;5.426;2023-09-18T01:01:42;16.80;99.90
67890;DHT22;54685;52.082;5.426;2023-09-18T01:04:09;16.80;99.90
67890;DHT22;54685;52.082;5.426;2023-09-18T01:06:37;16.80;99.90
67890;DHT22;54685;52.082;5.426;2023-09-18T01:09:04;16.70;99.90
67890;DHT22;54685;52.082;5.426;2023-09-18T01:12:01;16.70;99.90
67890;DHT22;54685;52.082;5.426;2023-09-18T01:14:36;16.70;99.90
67890;DHT22;54685;52.082;5.426;2023-09-18T01:17:05;16.70;99.90
67890;DHT22;54685;52.082;5.426;2023-09-18T01:19:43;16.70;99.90
67890;DHT22;54685;52.082;5.426;2023-09-18T01:22:16;16.70;99.90
67890;DHT22;54685;52.082;5.426;2023-09-18T01:24:47;16.70;99.90
67890;DHT22;54685;52.082;5.426;2023-09-18T01:27:17;16.70;99.90
67890;DHT22;54685;52.082;5.426;2023-09-18T01:29:45;16.70;99.90
67890;DHT22;54685;52.082;5.426;2023-09-18T01:32:13;16.70;99.90
67890;DHT22;54685;52.082;5.426;2023-09-18T01:34:47;16.70;99.90
67890;DHT22;54685;52.082;5.426;2023-09-18T01:37:16;16.70;99.90
67890;DHT22;54685;52.082;5.426;2023-09-18T01:39:46;16.70;99.90
67890;DHT22;54685;52.082;5.426;2023-09-18T01:42:15;16.60;99.90
67890;DHT22;54685;52.082;5.426;2023-09-18T01:44:43;16.60;99.90
67890;DHT22;54685;52.082;5.426;2023-09-18T01:47:16;16.60;99.90
67890;DHT22;54685;52.082;5.426;2023-09-18T01:49:44;16.70;99.90
67890;DHT22;54685;52.082;5.426;2023-09-18T01:52:13;16.70;99.90
67890;DHT22;54685;52.082;5.426;2023-09-18T01:54:40;16.70;99.90
67890;DHT22;54685;52.082;5.426;2023-09-18T01:57:08;16.80;99.90
67890;DHT22;54685;52.082;5.426;2023-09-18T01:59:35;16.80;99.90
67890;DHT22;54685;52.082;5.426;2023-09-18T02:02:04;16.80;99.90
67890;DHT22;54685;52.082;5.426;2023-09-18T02:04:35;16.80;99.90
67890;DHT22;54685;52.082;5.426;2023-09-18T02:07:24;16.80;99.90
67890;DHT22;54685;52.082;5.426;2023-09-18T02:09:51;16.80;99.90
67890;DHT22;54685;52.082;5.426;2023-09-18T02:12:18;16.90;99.90
67890;DHT22;54685;52.082;5.426;2023-09-18T02:14:47;16.90;99.90
67890;DHT22;54685;52.082;5.426;2023-09-18T02:17:14;17.00;99.90
67890;DHT22;54685;52.082;5.426;2023-09-18T02:19:41;17.00;99.90
67890;DHT22;54685;52.082;5.426;2023-09-18T02:22:09;17.10;99.90
67890;DHT22;54685;52.082;5.426;2023-09-18T02:24:36;17.20;99.90
67890;DHT22;54685;52.082;5.426;2023-09-18T02:27:04;17.30;99.90
67890;DHT22;54685;52.082;5.426;2023-09-18T02:29:32;17.30;99.90
67890;DHT22;54685;52.082;5.426;2023-09-18T02:31:59;17.40;99.90
67890;DHT22;54685;52.082;5.426;2023-09-18T02:34:27;17.50;99.90
67890;DHT22;54685;52.082;5.426;2023-09-18T02:36:53;17.50;99.90
67890;DHT22;54685;52.082;5.426;2023-09-18T02:39:21;17.60;99.90
67890;DHT22;54685;52.082;5.426;2023-09-18T02:41:49;17.60;99.90
67890;DHT22;54685;52.082;5.426;2023-09-18T02:44:16;17.70;99.90
67890;DHT22;54685;52.082;5.426;2023-09-18T02:46:43;17.70;99.90
67890;DHT22;54685;52.082;5.426;2023-09-18T02:49:12;17.80;99.90
67890;DHT22;54685;52.082;5.426;2023-09-18T02:51:39;17.80;99.90
67890;DHT22;54685;52.082;5.426;2023-09-18T02:54:06;17.80;99.90
67890;DHT22;54685;52.082;5.426;2023-09-18T02:56:33;17.80;99.90
67890;DHT22;54685;52.082;5.426;2023-09-18T02:59:00;17.90;99.90
67890;DHT22;54685;52.082;5.426;2023-09-18T03:01:27;17.90;99.90
67890;DHT22;54685;52.082;5.426;2023-09-18T03:03:54;17.90;99.90
67890;DHT22;54685;52.082;5.426;2023-09-18T03:06:20;17.90;99.90
67890;DHT22;54685;52.082;5.426;2023-09-18T03:08:48;17.90;99.90
67890;DHT22;54685;52.082;5.426;2023-09-18T03:11:16;17.90;99.90
67890;DHT22;54685;52.082;5.426;2023-09-18T03:13:44;17.90;99.90
67890;DHT22;54685;52.082;5.426;2023-09-18T03:16:17;17.90;99.90
67890;DHT22;54685;52.082;5.426;2023-09-18T03:18:45;17.90;99.90
67890;DHT22;54685;52.082;5.426;2023-09-18T03:21:12;17.90;99.90
67890;DHT22;54685;52.082;5.426;2023-09-18T03:23:39;17.90;99.90
67890;DHT22;54685;52.082;5.426;2023-09-18T03:26:06;17.80;99.90
67890;DHT22;54685;52.082;5.426;2023-09-18T03:28:33;17.80;99.90
67890;DHT22;54685;52.082;5.426;2023-09-18T03:31:01;17.80;99.90
67890;DHT22;54685;52.082;5.426;2023-09-18T03:33:28;17.80;99.90
67890;DHT22;54685;52.082;5.426;2023-09-18T03:35:55;17.80;99.90
67890;DHT22;54685;52.082;5.426;2023-09-18T03:38:27;17.80;99.90
67890;DHT22;54685;52.082;5.426;2023-09-18T03:40:54;17.80;99.90
67890;DHT22;54685;52.082;5.426;2023-09-18T03:43:21;17.80;99.90
67890;DHT22;54685;52.082;5.426;2023-09-18T03:45:49;17.80;99.90
67890;DHT22;54685;52.082;5.426;2023-09-18T03:48:16;17.80;99.90
67890;DHT22;54685;52.082;5.426;2023-09-18T03:50:43;17.90;99.90
67890;DHT22;54685;52.082;5.426;2023-09-18T03:53:11;17.90;99.90
67890;DHT22;54685;52.082;5.426;2023-09-18T03:55:38;17.90;99.90
67890;DHT22;54685;52.082;5.426;2023-09-18T03:58:05;18.00;99.90
67890;DHT22;54685;52.082;5.426;2023-09-18T04:00:33;18.00;99.90
67890;DHT22;54685;52.082;5.426;2023-09-18T04:02:59;18.10;99.90
67890;DHT22;54685;52.082;5.426;2023-09-18T04:05:27;18.20;99.90
67890;DHT22;54685;52.082;5.426;2023-09-18T04:07:56;18.20;99.90
67890;DHT22;54685;52.082;5.426;2023-09-18T04:10:23;18.30;99.90
67890;DHT22;54685;52.082;5.426;2023-09-18T04:12:51;18.30;99.90
67890;DHT22;54685;52.082;5.426;2023-09-18T04:15:19;18.30;99.90
67890;DHT22;54685;52.082;5.426;2023-09-18T04:17:47;18.40;99.90
67890;DHT22;54685;52.082;5.426;2023-09-18T04:20:15;18.40;99.90
67890;DHT22;54685;52.082;5.426;2023-09-18T04:22:44;18.40;99.90
67890;DHT22;54685;52.082;5.426;2023-09-18T04:25:12;18.40;99.90
67890;DHT22;54685;52.082;5.426;2023-09-18T04:27:40;18.40;99.90
67890;DHT22;54685;52.082;5.426;2023-09-18T04:30:08;18.50;99.90
67890;DHT22;54685;52.082;5.426;2023-09-18T04:32:36;18.50;99.90
67890;DHT22;54685;52.082;5.426;2023-09-18T04:35:05;18.50;99.90
67890;DHT22;54685;52.082;5.426;2023-09-18T04:37:36;18.50;99.90
67890;DHT22;54685;52.082;5.426;2023-09-18T04:40:06;18.50;99.90
67890;DHT22;54685;52.082;5.426;2023-09-18T04:42:38;18.50;99.90
67890;DHT22;54685;52.082;5.426;2023-09-18T04:45:07;18.50;99.90
67890;DHT22;54685;52.082;5.426;2023-09-18T04:47:34;18.50;99.90
67890;DHT22;54685;52.082;5.426;2023-09-18T04:50:03;18.50;99.90
67890;DHT22;54685;52.082;5.426;2023-09-18T04:52:38;18.50;99.90
67890;DHT22;54685;52.082;5.426;2023-09-18T04:55:08;18.70;99.90
67890;DHT22;54685;52.082;5.426;2023-09-18T04:57:35;18.80;99.90
67890;DHT22;54685;52.082;5.426;2023-09-18T05:00:03;18.80;99.90
67890;DHT22;54685;52.082;5.426;2023-09-18T05:02:44;18.70;99.90
67890;DHT22;54685;52.082;5.426;2023-09-18T05:05:11;18.70;99.90
67890;DHT22;54685;52.082;5.426;2023-09-18T05:07:40;18.70;99.90
67890;DHT22;54685;52.082;5.426;2023-09-18T05:10:08;18.70;99.90
67890;DHT22;54685;52.082;5.426;2023-09-18T05:12:35;18.60;99.90
67890;DHT22;54685;52.082;5.426;2023-09-18T05:15:01;18.50;99.90
67890;DHT22;54685;52.082;5.426;2023-09-18T05:20:12;18.40;99.90
67890;DHT22;54685;52.082;5.426;2023-09-18T05:22:41;18.40;99.90
67890;DHT22;54685;52.082;5.426;2023-09-18T05:25:09;18.40;99.90
67890;DHT22;54685;52.082;5.426;2023-09-18T05:27:37;18.40;99.90
67890;DHT22;54685;52.082;5.426;2023-09-18T05:30:21;18.40;99.90
67890;DHT22;54685;52.082;5.426;2023-09-18T05:32:48;18.40;99.90
67890;DHT22;54685;52.082;5.426;2023-09-18T05:35:15;18.40;99.90
67890;DHT22;54685;52.082;5.426;2023-09-18T05:37:43;18.40;99.90
67890;DHT22;54685;52.082;5.426;2023-09-18T05:40:11;18.40;99.90
67890;DHT22;54685;52.082;5.426;2023-09-18T05:42:41;18.40;99.90
67890;DHT22;54685;52.082;5.426;2023-09-18T05:45:13;18.40;99.90
67890;DHT22;54685;52.082;5.426;2023-09-18T05:47:42;18.30;99.90
67890;DHT22;54685;52.082;5.426;2023-09-18T05:50:10;18.40;99.90
67890;DHT22;54685;52.082;5.426;2023-09-18T05:52:42;18.40;99.90
67890;DHT22;54685;52.082;5.426;2023-09-18T05:55:10;18.40;99.90
67890;DHT22;54685;52.082;5.426;2023-09-18T05:57:37;18.40;99.90
67890;DHT22;54685;52.082;5.426;2023-09-18T06:00:04;18.40;99.90
67890;DHT22;54685;52.082;5.426;2023-09-18T06:02:38;18.40;99.90
67890;DHT22;54685;52.082;5.426;2023-09-18T06:05:06;18.30;99.90
67890;DHT22;54685;52.082;5.426;2023-09-18T06:07:33;18.40;99.90
67890;DHT22;54685;52.082;5.426;2023-09-18T06:10:00;18.40;99.90
67890;DHT22;54685;52.082;5.426;2023-09-18T06:12:27;18.40;99.90
67890;DHT22;54685;52.082;5.426;2023-09-18T06:14:54;18.40;99.90
67890;DHT22;54685;52.082;5.426;2023-09-18T06:17:21;18.30;99.90
67890;DHT22;54685;52.082;5.426;2023-09-18T06:19:48;18.30;99.90
67890;DHT22;54685;52.082;5.426;2023-09-18T06:22:17;18.40;99.90
67890;DHT22;54685;52.082;5.426;2023-09-18T06:24:44;18.40;99.90
67890;DHT22;54685;52.082;5.426;2023-09-18T06:27:10;18.50;99.90
67890;DHT22;54685;52.082;5.426;2023-09-18T06:29:38;18.40;99.90
67890;DHT22;54685;52.082;5.426;2023-09-18T06:32:06;18.50;99.90
67890;DHT22;54685;52.082;5.426;2023-09-18T06:34:34;18.50;99.90
67890;DHT22;54685;52.082;5.426;2023-09-18T06:37:00;18.50;99.90
67890;DHT22;54685;52.082;5.426;2023-09-18T06:39:27;18.50;99.90
67890;DHT22;54685;52.082;5.426;2023-09-18T06:41:54;18.60;99.90
67890;DHT22;54685;52.082;5.426;2023-09-18T06:44:23;18.60;99.90
67890;DHT22;54685;52.082;5.426;2023-09-18T06:46:50;18.60;99.90
67890;DHT22;54685;52.082;5.426;2023-09-18T06:49:19;18.60;99.90
67890;DHT22;54685;52.082;5.426;2023-09-18T06:51:46;18.60;99.90
67890;DHT22;54685;52.082;5.426;2023-09-18T06:54:13;18.60;99.90
67890;DHT22;54685;52.082;5.426;2023-09-18T06:56:41;18.70;99.90
67890;DHT22;54685;52.082;5.426;2023-09-18T06:59:08;18.70;99.90
67890;DHT22;54685;52.082;5.426;2023-09-18T07:01:35;18.80;99.90
67890;DHT22;54685;52.082;5.426;2023-09-18T07:04:02;18.80;99.90
67890;DHT22;54685;52.082;5.426;2023-09-18T07:06:31;18.90;99.90
67890;DHT22;54685;52.082;5.426;2023-09-18T07:08:58;19.00;99.90
67890;DHT22;54685;52.082;5.426;2023-09-18T07:11:26;19.00;99.90
67890;DHT22;54685;52.082;5.426;2023-09-18T07:13:53;19.00;99.90
67890;DHT22;54685;52.082;5.426;2023-09-18T07:16:20;19.10;99.90
67890;DHT22;54685;52.082;5.426;2023-09-18T07:18:47;19.10;99.90
67890;DHT22;54685;52.082;5.426;2023-09-18T07:21:13;19.10;99.90
67890;DHT22;54685;52.082;5.426;2023-09-18T07:23:41;19.10;99.90
67890;DHT22;54685;52.082;5.426;2023-09-18T07:26:08;19.10;99.90
67890;DHT22;54685;52.082;5.426;2023-09-18T07:28:35;19.10;99.90
67890;DHT22;54685;52.082;5.426;2023-09-18T07:31:08;19.10;99.90
67890;DHT22;54685;52.082;5.426;2023-09-18T07:33:36;19.20;99.90
67890;DHT22;54685;52.082;5.426;2023-09-18T07:36:03;19.10;99.90
67890;DHT22;54685;52.082;5.426;2023-09-18T07:38:30;19.20;99.90
67890;DHT22;54685;52.082;5.426;2023-09-18T07:40:58;19.10;99.90
67890;DHT22;54685;52.082;5.426;2023-09-18T07:43:25;19.20;99.90
67890;DHT22;54685;52.082;5.426;2023-09-18T07:45:53;19.20;99.90
67890;DHT22;54685;52.082;5.426;2023-09-18T07:48:22;19.10;99.90
67890;DHT22;54685;52.082;5.426;2023-09-18T07:50:49;19.20;99.90
67890;DHT22;54685;52.082;5.426;2023-09-18T07:53:18;19.20;99.90
67890;DHT22;54685;52.082;5.426;2023-09-18T07:55:47;19.30;99.90
67890;DHT22;54685;52.082;5.426;2023-09-18T07:58:14;19.20;99.90
67890;DHT22;54685;52.082;5.426;2023-09-18T08:00:41;19.20;99.90
67890;DHT22;54685;52.082;5.426;2023-09-18T08:03:08;19.20;99.90
67890;DHT22;54685;52.082;5.426;2023-09-18T08:05:35;19.20;99.90
67890;DHT22;54685;52.082;5.426;2023-09-18T08:08:02;19.20;99.90
67890;DHT22;54685;52.082;5.426;2023-09-18T08:10:32;19.20;99.90
67890;DHT22;54685;52.082;5.426;2023-09-18T08:13:02;19.20;99.90
67890;DHT22;54685;52.082;5.426;2023-09-18T08:15:29;19.20;99.90
67890;DHT22;54685;52.082;5.426;2023-09-18T08:17:56;19.30;99.90
67890;DHT22;54685;52.082;5.426;2023-09-18T08:20:26;19.30;99.90
67890;DHT22;54685;52.082;5.426;2023-09-18T08:22:55;19.30;99.90
67890;DHT22;54685;52.082;5.426;2023-09-18T08:25:24;19.30;99.90
67890;DHT22;54685;52.082;5.426;2023-09-18T08:27:51;19.30;99.90
67890;DHT22;54685;52.082;5.426;2023-09-18T08:30:18;19.30;99.90
67890;DHT22;54685;52.082;5.426;2023-09-18T08:32:47;19.30;99.90
67890;DHT22;54685;52.082;5.426;2023-09-18T08:35:15;19.30;99.90
67890;DHT22;54685;52.082;5.426;2023-09-18T08:37:42;19.30;99.90
67890;DHT22;54685;52.082;5.426;2023-09-18T08:40:11;19.40;99.90
67890;DHT22;54685;52.082;5.426;2023-09-18T08:42:51;19.40;99.90
67890;DHT22;54685;52.082;5.426;2023-09-18T08:45:31;19.40;99.90
67890;DHT22;54685;52.082;5.426;2023-09-18T08:48:02;19.50;99.90
67890;DHT22;54685;52.082;5.426;2023-09-18T08:50:30;19.50;99.90
67890;DHT22;54685;52.082;5.426;2023-09-18T08:52:57;19.50;99.90
67890;DHT22;54685;52.082;5.426;2023-09-18T08:55:24;19.50;99.90
67890;DHT22;54685;52.082;5.426;2023-09-18T08:57:52;19.50;99.90
67890;DHT22;54685;52.082;5.426;2023-09-18T09:00:20;19.70;99.90
67890;DHT22;54685;52.082;5.426;2023-09-18T09:02:47;19.70;99.90
67890;DHT22;54685;52.082;5.426;2023-09-18T09:05:18;19.70;99.90
67890;DHT22;54685;52.082;5.426;2023-09-18T09:07:45;19.80;99.90
67890;DHT22;54685;52.082;5.426;2023-09-18T09:10:12;19.80;99.90
67890;DHT22;54685;52.082;5.426;2023-09-18T09:12:57;19.80;99.90
67890;DHT22;54685;52.082;5.426;2023-09-18T09:15:27;19.90;99.90
67890;DHT22;54685;52.082;5.426;2023-09-18T09:18:05;19.90;99.90
67890;DHT22;54685;52.082;5.426;2023-09-18T09:20:33;20.00;99.90
67890;DHT22;54685;52.082;5.426;2023-09-18T09:23:04;20.30;99.90
67890;DHT22;54685;52.082;5.426;2023-09-18T09:25:32;20.50;99.90
67890;DHT22;54685;52.082;5.426;2023-09-18T09:28:04;20.70;99.90
67890;DHT22;54685;52.082;5.426;2023-09-18T09:30:34;21.00;99.90
67890;DHT22;54685;52.082;5.426;2023-09-18T09:33:06;21.30;99.90
67890;DHT22;54685;52.082;5.426;2023-09-18T09:35:36;21.50;99.90
67890;DHT22;54685;52.082;5.426;2023-09-18T09:38:11;21.90;99.90
67890;DHT22;54685;52.082;5.426;2023-09-18T09:40:42;22.30;99.90
67890;DHT22;54685;52.082;5.426;2023-09-18T09:43:11;22.40;99.90
67890;DHT22;54685;52.082;5.426;2023-09-18T09:45:41;22.40;99.90
67890;DHT22;54685;52.082;5.426;2023-09-18T09:48:08;22.30;99.90
67890;DHT22;54685;52.082;5.426;2023-09-18T09:50:44;22.00;99.90
67890;DHT22;54685;52.082;5.426;2023-09-18T09:53:16;21.80;99.90
67890;DHT22;54685;52.082;5.426;2023-09-18T09:55:43;21.60;99.90
67890;DHT22;54685;52.082;5.426;2023-09-18T09:58:11;21.50;99.90
67890;DHT22;54685;52.082;5.426;2023-09-18T10:00:45;21.20;99.90
67890;DHT22;54685;52.082;5.426;2023-09-18T10:03:16;21.10;99.90
67890;DHT22;54685;52.082;5.426;2023-09-18T10:05:47;20.90;99.90
67890;DHT22;54685;52.082;5.426;2023-09-18T10:08:19;20.90;99.90
67890;DHT22;54685;52.082;5.426;2023-09-18T10:10:50;20.90;99.90
67890;DHT22;54685;52.082;5.426;2023-09-18T10:13:20;20.80;99.90
67890;DHT22;54685;52.082;5.426;2023-09-18T10:15:50;20.80;99.90
67890;DHT22;54685;52.082;5.426;2023-09-18T10:18:27;20.80;99.90
67890;DHT22;54685;52.082;5.426;2023-09-18T10:21:11;20.90;99.90
67890;DHT22;54685;52.082;5.426;2023-09-18T10:23:57;21.10;99.90
67890;DHT22;54685;52.082;5.426;2023-09-18T10:26:26;21.10;99.90
67890;DHT22;54685;52.082;5.426;2023-09-18T10:28:57;21.10;99.90
67890;DHT22;54685;52.082;5.426;2023-09-18T10:31:26;21.20;99.90
67890;DHT22;54685;52.082;5.426;2023-09-18T10:33:58;21.30;99.90
67890;DHT22;54685;52.082;5.426;2023-09-18T10:36:26;21.60;99.90
67890;DHT22;54685;52.082;5.426;2023-09-18T10:38:59;21.90;99.90
67890;DHT22;54685;52.082;5.426;2023-09-18T10:41:27;22.00;99.90
67890;DHT22;54685;52.082;5.426;2023-09-18T10:43:56;22.10;99.90
67890;DHT22;54685;52.082;5.426;2023-09-18T10:46:27;22.20;99.90
67890;DHT22;54685;52.082;5.426;2023-09-18T10:48:54;22.10;99.90
67890;DHT22;54685;52.082;5.426;2023-09-18T10:51:22;21.90;99.90
67890;DHT22;54685;52.082;5.426;2023-09-18T10:53:50;21.80;99.90
67890;DHT22;54685;52.082;5.426;2023-09-18T10:56:22;21.60;99.90
67890;DHT22;54685;52.082;5.426;2023-09-18T10:58:59;21.50;99.90
67890;DHT22;54685;52.082;5.426;2023-09-18T11:01:30;21.50;99.90
67890;DHT22;54685;52.082;5.426;2023-09-18T11:04:02;21.60;99.90
67890;DHT22;54685;52.082;5.426;2023-09-18T11:06:29;21.60;99.90
67890;DHT22;54685;52.082;5.426;2023-09-18T11:09:06;21.70;99.90
67890;DHT22;54685;52.082;5.426;2023-09-18T11:11:33;22.00;99.90
67890;DHT22;54685;52.082;5.426;2023-09-18T11:14:02;22.30;99.90
67890;DHT22;54685;52.082;5.426;2023-09-18T11:16:35;22.60;99.90
67890;DHT22;54685;52.082;5.426;2023-09-18T11:19:09;22.60;99.90
67890;DHT22;54685;52.082;5.426;2023-09-18T11:21:37;22.60;99.90
67890;DHT22;54685;52.082;5.426;2023-09-18T11:26:36;22.70;99.90
67890;DHT22;54685;52.082;5.426;2023-09-18T11:29:07;22.80;99.90
67890;DHT22;54685;52.082;5.426;2023-09-18T11:31:46;22.90;99.90
67890;DHT22;54685;52.082;5.426;2023-09-18T11:34:15;23.00;99.90
67890;DHT22;54685;52.082;5.426;2023-09-18T11:36:42;23.00;99.90
67890;DHT22;54685;52.082;5.426;2023-09-18T11:39:09;23.00;99.90
67890;DHT22;54685;52.082;5.426;2023-09-18T11:41:39;22.90;99.90
67890;DHT22;54685;52.082;5.426;2023-09-18T11:46:50;22.80;99.90
67890;DHT22;54685;52.082;5.426;2023-09-18T11:49:23;22.80;99.90
67890;DHT22;54685;52.082;5.426;2023-09-18T11:51:54;22.70;99.90
67890;DHT22;54685;52.082;5.426;2023-09-18T11:54:26;22.70;99.90
67890;DHT22;54685;52.082;5.426;2023-09-18T11:56:53;22.80;99.90
67890;DHT22;54685;52.082;5.426;2023-09-18T11:59:40;22.80;99.90
67890;DHT22;54685;52.082;5.426;2023-09-18T12:02:33;22.60;99.90
67890;DHT22;54685;52.082;5.426;2023-09-18T12:05:10;22.50;99.90
67890;DHT22;54685;52.082;5.426;2023-09-18T12:07:38;22.60;99.90
67890;DHT22;54685;52.082;5.426;2023-09-18T12:10:06;22.60;99.90
67890;DHT22;54685;52.082;5.426;2023-09-18T12:12:36;22.60;99.90
67890;DHT22;54685;52.082;5.426;2023-09-18T12:15:03;22.40;99.90
67890;DHT22;54685;52.082;5.426;2023-09-18T12:17:30;22.30;99.90
67890;DHT22;54685;52.082;5.426;2023-09-18T12:19:57;22.20;99.90
67890;DHT22;54685;52.082;5.426;2023-09-18T12:22:28;22.00;99.90
67890;DHT22;54685;52.082;5.426;2023-09-18T12:25:14;21.90;99.90
67890;DHT22;54685;52.082;5.426;2023-09-18T12:27:43;21.90;99.90
67890;DHT22;54685;52.082;5.426;2023-09-18T12:30:11;21.90;99.90
67890;DHT22;54685;52.082;5.426;2023-09-18T12:32:47;21.90;99.90
67890;DHT22;54685;52.082;5.426;2023-09-18T12:35:17;21.80;99.90
67890;DHT22;54685;52.082;5.426;2023-09-18T12:37:45;21.90;99.90
67890;DHT22;54685;52.082;5.426;2023-09-18T12:40:26;22.00;99.90
67890;DHT22;54685;52.082;5.426;2023-09-18T12:42:58;22.30;99.90
67890;DHT22;54685;52.082;5.426;2023-09-18T12:45:27;22.60;99.90
67890;DHT22;54685;52.082;5.426;2023-09-18T12:47:57;22.70;99.90
67890;DHT22;54685;52.082;5.426;2023-09-18T12:50:25;22.90;99.90
67890;DHT22;54685;52.082;5.426;2023-09-18T12:52:53;23.10;99.90
67890;DHT22;54685;52.082;5.426;2023-09-18T12:55:26;23.00;99.90
67890;DHT22;54685;52.082;5.426;2023-09-18T12:57:54;23.10;99.90
67890;DHT22;54685;52.082;5.426;2023-09-18T13:00:23;23.10;99.90
67890;DHT22;54685;52.082;5.426;2023-09-18T13:02:50;23.20;99.90
67890;DHT22;54685;52.082;5.426;2023-09-18T13:05:23;23.20;99.90
67890;DHT22;54685;52.082;5.426;2023-09-18T13:07:54;23.20;99.90
67890;DHT22;54685;52.082;5.426;2023-09-18T13:10:22;23.30;99.90
67890;DHT22;54685;52.082;5.426;2023-09-18T13:12:53;23.30;99.90
67890;DHT22;54685;52.082;5.426;2023-09-18T13:15:30;23.20;99.90
67890;DHT22;54685;52.082;5.426;2023-09-18T13:18:00;23.10;99.90
67890;DHT22;54685;52.082;5.426;2023-09-18T13:20:28;23.00;99.90
67890;DHT22;54685;52.082;5.426;2023-09-18T13:22:57;23.00;99.90
67890;DHT22;54685;52.082;5.426;2023-09-18T13:25:31;23.10;99.90
67890;DHT22;54685;52.082;5.426;2023-09-18T13:28:06;23.10;99.90
67890;DHT22;54685;52.082;5.426;2023-09-18T13:30:35;23.10;99.90
67890;DHT22;54685;52.082;5.426;2023-09-18T13:33:15;23.20;99.90
67890;DHT22;54685;52.082;5.426;2023-09-18T13:35:45;23.10;99.90
67890;DHT22;54685;52.082;5.426;2023-09-18T13:38:12;23.10;99.90
67890;DHT22;54685;52.082;5.426;2023-09-18T13:40:45;23.10;99.90
67890;DHT22;54685;52.082;5.426;2023-09-18T13:43:14;23.20;99.90
67890;DHT22;54685;52.082;5.426;2023-09-18T13:45:49;23.20;99.90
67890;DHT22;54685;52.082;5.426;2023-09-18T13:48:19;23.20;99.90
67890;DHT22;54685;52.082;5.426;2023-09-18T13:50:47;23.30;99.90
67890;DHT22;54685;52.082;5.426;2023-09-18T13:53:17;23.40;99.90
67890;DHT22;54685;52.082;5.426;2023-09-18T13:55:44;23.30;99.90
67890;DHT22;54685;52.082;5.426;2023-09-18T13:58:11;23.30;99.90
67890;DHT22;54685;52.082;5.426;2023-09-18T14:00:38;23.20;99.90
67890;DHT22;54685;52.082;5.426;2023-09-18T14:03:05;23.20;99.90
67890;DHT22;54685;52.082;5.426;2023-09-18T14:05:32;23.30;99.90
67890;DHT22;54685;52.082;5.426;2023-09-18T14:08:01;23.40;99.90
67890;DHT22;54685;52.082;5.426;2023-09-18T14:10:28;23.40;99.90
67890;DHT22;54685;52.082;5.426;2023-09-18T14:12:55;23.40;99.90
67890;DHT22;54685;52.082;5.426;2023-09-18T14:15:22;23.30;99.60
67890;DHT22;54685;52.082;5.426;2023-09-18T14:17:49;23.30;99.90
67890;DHT22;54685;52.082;5.426;2023-09-18T14:20:16;23.30;99.00
67890;DHT22;54685;52.082;5.426;2023-09-18T14:22:46;23.20;99.70
67890;DHT22;54685;52.082;5.426;2023-09-18T14:25:17;23.20;99.30
67890;DHT22;54685;52.082;5.426;2023-09-18T14:27:44;23.40;97.60
67890;DHT22;54685;52.082;5.426;2023-09-18T14:30:11;23.40;99.40
67890;DHT22;54685;52.082;5.426;2023-09-18T14:32:40;23.30;99.10
67890;DHT22;54685;52.082;5.426;2023-09-18T14:35:07;23.20;98.30
67890;DHT22;54685;52.082;5.426;2023-09-18T14:37:36;23.10;96.50
67890;DHT22;54685;52.082;5.426;2023-09-18T14:40:03;22.90;97.40
67890;DHT22;54685;52.082;5.426;2023-09-18T14:42:30;22.80;97.10
67890;DHT22;54685;52.082;5.426;2023-09-18T14:44:57;22.70;97.70
67890;DHT22;54685;52.082;5.426;2023-09-18T14:47:24;22.60;99.90
67890;DHT22;54685;52.082;5.426;2023-09-18T14:49:51;22.70;99.00
67890;DHT22;54685;52.082;5.426;2023-09-18T14:52:18;22.60;99.20
67890;DHT22;54685;52.082;5.426;2023-09-18T14:54:47;22.50;99.90
67890;DHT22;54685;52.082;5.426;2023-09-18T14:57:34;22.40;99.90
67890;DHT22;54685;52.082;5.426;2023-09-18T15:00:01;22.40;99.90
67890;DHT22;54685;52.082;5.426;2023-09-18T15:02:33;22.30;99.90
67890;DHT22;54685;52.082;5.426;2023-09-18T15:05:01;22.30;99.90
67890;DHT22;54685;52.082;5.426;2023-09-18T15:07:31;22.20;99.90
67890;DHT22;54685;52.082;5.426;2023-09-18T15:10:00;22.10;99.90
67890;DHT22;54685;52.082;5.426;2023-09-18T15:12:27;22.00;99.90
67890;DHT22;54685;52.082;5.426;2023-09-18T15:14:53;21.40;99.90
67890;DHT22;54685;52.082;5.426;2023-09-18T15:17:21;20.80;99.90
67890;DHT22;54685;52.082;5.426;2023-09-18T15:19:47;20.20;99.90
67890;DHT22;54685;52.082;5.426;2023-09-18T15:22:21;19.60;99.90
67890;DHT22;54685;52.082;5.426;2023-09-18T15:24:48;19.20;99.90
67890;DHT22;54685;52.082;5.426;2023-09-18T15:27:15;18.80;99.90
67890;DHT22;54685;52.082;5.426;2023-09-18T15:29:43;18.40;99.90
67890;DHT22;54685;52.082;5.426;2023-09-18T15:32:10;18.10;99.90
67890;DHT22;54685;52.082;5.426;2023-09-18T15:34:37;17.70;99.90
67890;DHT22;54685;52.082;5.426;2023-09-18T15:37:04;17.50;99.90
67890;DHT22;54685;52.082;5.426;2023-09-18T15:39:32;17.30;99.90
67890;DHT22;54685;52.082;5.426;2023-09-18T15:42:02;17.20;99.90
67890;DHT22;54685;52.082;5.426;2023-09-18T15:44:29;17.10;99.90
67890;DHT22;54685;52.082;5.426;2023-09-18T15:46:57;17.00;99.90
67890;DHT22;54685;52.082;5.426;2023-09-18T15:49:24;16.90;99.90